Siping, China
Current Conditions -  °F | °C
As of 8:00 PM on Wednesday 22 Oct 2014 (Local Time) from ZYCC Reporting Station
Smoke Smoke  
Wind Chill:   Ceiling: Unl
Heat Index:   Visibility: 0.87mi
Dew Point: -13°   Wind: 7mph
Humidity: 30%   Direction: 170°S
Pressure: 30.09"   Gusts: NA
Location:  43.17°N, 124.33°E
Report Text: ZYCC 221200Z 17003MPS 1400 R24/P2000 FU NSC 03/M13 Q1019 BECMGTL13002000
Loading
Personal Weather Stations






























Interactive Weather Map
Tropical Storm Tracking
New forecast layout! Learn more

10-Day Weather Forecast

Advertisements
Track Severe Weather on mobile